createdAt,value
2017-05-27T00:00:19.716Z,4.44
2017-05-27T00:02:47.928Z,4.23
2017-05-27T00:05:16.139Z,4.50
2017-05-27T00:07:44.371Z,4.83
2017-05-27T00:10:12.621Z,5.17
2017-05-27T00:12:40.822Z,5.04
2017-05-27T00:15:09.068Z,5.07
2017-05-27T00:17:37.343Z,5.27
2017-05-27T00:20:05.620Z,7.07
2017-05-27T00:22:33.831Z,5.88
2017-05-27T00:25:02.048Z,6.70
2017-05-27T00:27:30.331Z,6.00
2017-05-27T00:29:58.577Z,5.60
2017-05-27T00:32:26.784Z,7.84
2017-05-27T00:34:55.000Z,6.28
2017-05-27T00:37:23.213Z,6.55
2017-05-27T00:39:51.502Z,6.26
2017-05-27T00:42:19.787Z,6.62
2017-05-27T00:44:48.042Z,6.00
2017-05-27T00:47:16.289Z,6.55
2017-05-27T00:49:44.491Z,6.56
2017-05-27T00:52:12.783Z,7.23
2017-05-27T00:54:41.003Z,7.25
2017-05-27T00:57:09.211Z,7.00
2017-05-27T00:59:37.436Z,7.00
2017-05-27T01:02:05.639Z,7.15
2017-05-27T01:04:33.851Z,8.75
2017-05-27T01:07:02.066Z,8.10
2017-05-27T01:09:30.308Z,6.70
2017-05-27T01:11:58.564Z,6.90
2017-05-27T01:14:26.851Z,7.42
2017-05-27T01:16:55.056Z,7.22
2017-05-27T01:19:23.283Z,7.00
2017-05-27T01:21:51.493Z,6.53
2017-05-27T01:24:19.735Z,6.83
2017-05-27T01:26:47.954Z,7.85
2017-05-27T01:29:16.163Z,7.73
2017-05-27T01:31:44.401Z,7.62
2017-05-27T01:34:12.640Z,8.56
2017-05-27T01:36:40.874Z,8.80
2017-05-27T01:39:09.073Z,7.88
2017-05-27T01:41:37.277Z,8.07
2017-05-27T01:44:05.520Z,7.37
2017-05-27T01:46:33.823Z,7.83
2017-05-27T01:49:02.027Z,7.85
2017-05-27T01:51:30.236Z,8.52
2017-05-27T01:53:58.456Z,13.53
2017-05-27T01:56:26.695Z,7.58
2017-05-27T01:58:54.971Z,7.97
2017-05-27T02:01:23.190Z,7.22
2017-05-27T02:03:51.416Z,8.52
2017-05-27T02:06:19.702Z,8.28
2017-05-27T02:08:47.991Z,7.65
2017-05-27T02:11:16.197Z,7.04
2017-05-27T02:13:44.503Z,7.70
2017-05-27T02:16:12.810Z,7.62
2017-05-27T02:18:41.018Z,7.53
2017-05-27T02:21:09.230Z,10.44
2017-05-27T02:23:37.543Z,7.75
2017-05-27T02:26:05.881Z,7.80
2017-05-27T02:28:34.091Z,7.45
2017-05-27T02:31:02.364Z,8.63
2017-05-27T02:33:30.635Z,8.47
2017-05-27T02:35:58.902Z,8.42
2017-05-27T02:38:27.153Z,8.55
2017-05-27T02:40:55.356Z,7.98
2017-05-27T02:43:23.600Z,8.65
2017-05-27T02:45:51.803Z,8.00
2017-05-27T02:48:20.029Z,7.57
2017-05-27T02:50:48.255Z,7.63
2017-05-27T02:53:16.475Z,8.63
2017-05-27T02:55:44.691Z,8.26
2017-05-27T02:58:12.910Z,8.65
2017-05-27T03:00:41.141Z,8.38
2017-05-27T03:03:09.362Z,8.18
2017-05-27T03:05:37.563Z,8.06
2017-05-27T03:08:05.880Z,8.18
2017-05-27T03:10:34.100Z,8.30
2017-05-27T03:13:02.395Z,8.45
2017-05-27T03:15:30.575Z,8.40
2017-05-27T03:17:58.815Z,7.80
2017-05-27T03:20:27.023Z,8.03
2017-05-27T03:22:55.232Z,8.30
2017-05-27T03:25:23.487Z,7.92
2017-05-27T03:27:51.694Z,9.05
2017-05-27T03:30:19.971Z,8.10
2017-05-27T03:32:48.198Z,8.77
2017-05-27T03:35:16.487Z,7.30
2017-05-27T03:37:44.692Z,8.40
2017-05-27T03:40:12.899Z,8.40
2017-05-27T03:42:41.222Z,7.10
2017-05-27T03:45:09.420Z,8.40
2017-05-27T03:47:37.647Z,9.50
2017-05-27T03:50:05.945Z,8.15
2017-05-27T03:52:34.150Z,8.38
2017-05-27T03:55:02.366Z,8.57
2017-05-27T03:57:30.669Z,9.45
2017-05-27T03:59:58.940Z,7.92
2017-05-27T04:02:27.158Z,7.27
2017-05-27T04:04:55.378Z,7.40
2017-05-27T04:07:23.575Z,6.88
2017-05-27T04:09:51.826Z,7.37
2017-05-27T04:12:20.045Z,7.07
2017-05-27T04:14:48.247Z,7.87
2017-05-27T04:17:16.467Z,7.08
2017-05-27T04:19:44.730Z,9.13
2017-05-27T04:22:12.950Z,7.92
2017-05-27T04:24:41.290Z,7.42
2017-05-27T04:27:09.654Z,6.82
2017-05-27T04:29:37.938Z,7.58
2017-05-27T04:32:06.154Z,7.98
2017-05-27T04:34:34.360Z,7.84
2017-05-27T04:37:02.591Z,7.95
2017-05-27T04:39:30.833Z,8.52
2017-05-27T04:41:58.300Z,7.13
2017-05-27T04:44:26.636Z,8.56
2017-05-27T04:46:54.841Z,9.22
2017-05-27T04:49:23.054Z,7.87
2017-05-27T04:51:51.291Z,7.48
2017-05-27T04:54:19.503Z,7.60
2017-05-27T04:56:47.819Z,7.10
2017-05-27T04:59:16.209Z,7.52
2017-05-27T05:01:44.419Z,7.43
2017-05-27T05:04:12.634Z,7.90
2017-05-27T05:06:40.849Z,7.28
2017-05-27T05:09:09.124Z,7.30
2017-05-27T05:11:37.385Z,7.27
2017-05-27T05:14:05.588Z,7.27
2017-05-27T05:16:33.827Z,8.00
2017-05-27T05:19:02.043Z,7.86
2017-05-27T05:21:30.257Z,7.77
2017-05-27T05:23:58.471Z,8.50
2017-05-27T05:26:26.835Z,11.35
2017-05-27T05:28:55.107Z,8.00
2017-05-27T05:31:23.347Z,7.85
2017-05-27T05:33:51.765Z,8.00
2017-05-27T05:36:19.988Z,8.08
2017-05-27T05:38:48.216Z,8.35
2017-05-27T05:41:16.423Z,7.82
2017-05-27T05:43:44.627Z,7.85
2017-05-27T05:46:12.932Z,9.78
2017-05-27T05:48:41.140Z,7.76
2017-05-27T05:51:09.391Z,7.10
2017-05-27T05:53:37.630Z,7.82
2017-05-27T05:56:05.834Z,8.27
2017-05-27T05:58:34.055Z,8.93
2017-05-27T06:01:02.263Z,7.33
2017-05-27T06:03:30.478Z,8.53
2017-05-27T06:05:58.007Z,6.95
2017-05-27T06:08:26.243Z,7.33
2017-05-27T06:10:54.475Z,8.08
2017-05-27T06:13:22.808Z,7.50
2017-05-27T06:15:51.019Z,7.05
2017-05-27T06:18:19.255Z,8.35
2017-05-27T06:20:47.524Z,7.18
2017-05-27T06:23:15.827Z,7.60
2017-05-27T06:25:44.041Z,6.80
2017-05-27T06:28:12.246Z,7.30
2017-05-27T06:30:40.472Z,7.35
2017-05-27T06:33:08.723Z,6.92
2017-05-27T06:35:37.017Z,7.57
2017-05-27T06:38:05.284Z,7.42
2017-05-27T06:40:33.500Z,6.87
2017-05-27T06:43:01.739Z,6.85
2017-05-27T06:45:30.009Z,6.52
2017-05-27T06:47:58.254Z,7.08
2017-05-27T06:50:26.466Z,6.50
2017-05-27T06:52:54.687Z,6.47
2017-05-27T06:55:23.003Z,6.72
2017-05-27T06:57:51.229Z,7.22
2017-05-27T07:00:19.433Z,7.00
2017-05-27T07:02:47.740Z,6.42
2017-05-27T07:05:15.942Z,6.40
2017-05-27T07:07:44.214Z,6.90
2017-05-27T07:10:12.411Z,6.70
2017-05-27T07:12:40.643Z,8.83
2017-05-27T07:15:08.856Z,7.15
2017-05-27T07:17:37.075Z,8.10
2017-05-27T07:20:05.294Z,7.20
2017-05-27T07:22:33.518Z,6.45
2017-05-27T07:25:01.758Z,6.56
2017-05-27T07:27:30.010Z,7.30
2017-05-27T07:29:58.227Z,7.03
2017-05-27T07:32:26.806Z,6.77
2017-05-27T07:34:55.042Z,6.85
2017-05-27T07:37:23.247Z,6.55
2017-05-27T07:39:51.451Z,6.82
2017-05-27T07:42:19.688Z,6.88
2017-05-27T07:44:47.987Z,7.10
2017-05-27T07:47:16.227Z,6.92
2017-05-27T07:49:44.467Z,6.55
2017-05-27T07:52:12.679Z,6.40
2017-05-27T07:54:41.104Z,6.22
2017-05-27T07:57:09.402Z,6.73
2017-05-27T07:59:37.651Z,7.32
2017-05-27T08:02:05.876Z,6.57
2017-05-27T08:04:34.100Z,6.35
2017-05-27T08:07:02.394Z,6.10
2017-05-27T08:09:30.624Z,6.40
2017-05-27T08:11:58.842Z,6.10
2017-05-27T08:14:27.059Z,6.52
2017-05-27T08:16:55.382Z,8.23
2017-05-27T08:19:23.599Z,7.67
2017-05-27T08:21:51.963Z,7.02
2017-05-27T08:24:20.184Z,6.08
2017-05-27T08:26:48.451Z,6.84
2017-05-27T08:29:16.655Z,6.30
2017-05-27T08:31:44.885Z,6.18
2017-05-27T08:34:31.005Z,5.82
2017-05-27T08:36:59.227Z,6.38
2017-05-27T08:39:27.431Z,6.73
2017-05-27T08:41:55.659Z,6.00
2017-05-27T08:44:24.287Z,5.57
2017-05-27T08:46:52.492Z,5.35
2017-05-27T08:49:20.731Z,5.28
2017-05-27T08:51:48.943Z,6.13
2017-05-27T08:54:17.195Z,5.30
2017-05-27T08:56:45.421Z,6.52
2017-05-27T08:59:13.649Z,5.28
2017-05-27T09:01:41.954Z,5.60
2017-05-27T09:04:10.233Z,5.46
2017-05-27T09:06:38.459Z,5.82
2017-05-27T09:09:06.804Z,6.68
2017-05-27T09:11:35.047Z,5.43
2017-05-27T09:14:03.268Z,5.64
2017-05-27T09:16:31.479Z,5.05
2017-05-27T09:18:59.729Z,5.18
2017-05-27T09:21:27.938Z,5.20
2017-05-27T09:23:56.194Z,5.62
2017-05-27T09:26:24.499Z,5.60
2017-05-27T09:28:52.719Z,5.53
2017-05-27T09:31:21.042Z,5.65
2017-05-27T09:33:49.256Z,5.48
2017-05-27T09:36:17.475Z,5.40
2017-05-27T09:38:46.533Z,5.50
2017-05-27T09:41:14.767Z,4.97
2017-05-27T09:43:43.042Z,4.92
2017-05-27T09:46:11.258Z,4.50
2017-05-27T09:48:39.479Z,5.13
2017-05-27T09:51:07.758Z,5.32
2017-05-27T09:53:36.032Z,5.20
2017-05-27T09:56:04.258Z,4.92
2017-05-27T09:58:32.468Z,4.73
2017-05-27T10:01:00.778Z,5.16
2017-05-27T10:03:29.043Z,5.72
2017-05-27T10:05:57.310Z,5.32
2017-05-27T10:08:25.583Z,4.90
2017-05-27T10:10:53.790Z,4.34
2017-05-27T10:13:22.032Z,5.28
2017-05-27T10:15:50.256Z,4.62
2017-05-27T10:18:18.583Z,4.03
2017-05-27T10:20:46.788Z,3.80
2017-05-27T10:23:15.031Z,4.57
2017-05-27T10:25:43.385Z,4.60
2017-05-27T10:28:11.682Z,5.00
2017-05-27T10:30:39.959Z,5.47
2017-05-27T10:33:08.237Z,5.93
2017-05-27T10:35:36.460Z,4.43
2017-05-27T10:38:04.678Z,4.58
2017-05-27T10:40:32.894Z,3.92
2017-05-27T10:43:01.135Z,4.27
2017-05-27T10:45:29.411Z,4.80
2017-05-27T10:47:57.626Z,4.53
2017-05-27T10:50:25.843Z,4.77
2017-05-27T10:52:54.067Z,4.67
2017-05-27T10:55:22.310Z,3.93
2017-05-27T10:57:50.522Z,3.60
2017-05-27T11:00:18.795Z,4.82
2017-05-27T11:02:47.022Z,5.75
2017-05-27T11:05:15.315Z,4.72
2017-05-27T11:07:43.570Z,4.53
2017-05-27T11:10:11.856Z,4.68
2017-05-27T11:12:40.071Z,4.30
2017-05-27T11:15:08.367Z,4.27
2017-05-27T11:17:36.575Z,4.15
2017-05-27T11:20:04.863Z,6.08
2017-05-27T11:22:33.190Z,4.42
2017-05-27T11:25:01.401Z,4.82
2017-05-27T11:27:29.734Z,4.80
2017-05-27T11:29:58.063Z,5.20
2017-05-27T11:32:26.343Z,4.62
2017-05-27T11:34:54.583Z,4.73
2017-05-27T11:37:22.883Z,5.12
2017-05-27T11:39:51.836Z,4.60
2017-05-27T11:42:20.056Z,4.80
2017-05-27T11:44:48.323Z,4.76
2017-05-27T11:47:16.557Z,4.95
2017-05-27T11:49:44.883Z,5.17
2017-05-27T11:52:13.106Z,5.00
2017-05-27T11:54:41.320Z,5.52
2017-05-27T11:57:09.596Z,4.12
2017-05-27T11:59:37.803Z,4.63
2017-05-27T12:02:06.163Z,6.02
2017-05-27T12:04:34.379Z,4.30
2017-05-27T12:07:02.628Z,5.03
2017-05-27T12:09:30.985Z,4.85
2017-05-27T12:11:59.186Z,4.78
2017-05-27T12:14:27.496Z,5.75
2017-05-27T12:16:55.712Z,4.68
2017-05-27T12:19:23.928Z,4.32
2017-05-27T12:21:52.242Z,4.52
2017-05-27T12:24:20.446Z,4.90
2017-05-27T12:26:48.667Z,5.65
2017-05-27T12:29:16.892Z,4.80
2017-05-27T12:31:45.173Z,5.40
2017-05-27T12:34:13.383Z,5.28
2017-05-27T12:36:41.631Z,4.90
2017-05-27T12:39:09.843Z,5.88
2017-05-27T12:41:38.145Z,4.85
2017-05-27T12:44:06.530Z,4.90
2017-05-27T12:46:34.742Z,4.15
2017-05-27T12:49:03.083Z,4.80
2017-05-27T12:51:31.395Z,5.10
2017-05-27T12:53:59.633Z,4.10
2017-05-27T12:56:27.911Z,4.38
2017-05-27T12:58:56.132Z,4.93
2017-05-27T13:01:24.421Z,5.23
2017-05-27T13:03:52.694Z,4.70
2017-05-27T13:06:20.911Z,4.83
2017-05-27T13:08:49.182Z,3.70
2017-05-27T13:11:17.399Z,5.55
2017-05-27T13:13:45.639Z,4.47
2017-05-27T13:16:13.859Z,3.90
2017-05-27T13:18:42.074Z,3.32
2017-05-27T13:21:10.344Z,3.44
2017-05-27T13:23:38.587Z,4.03
2017-05-27T13:26:06.803Z,4.25
2017-05-27T13:28:35.012Z,5.62
2017-05-27T13:31:03.251Z,5.47
2017-05-27T13:33:31.506Z,3.90
2017-05-27T13:35:59.799Z,3.90
2017-05-27T13:38:28.064Z,4.02
2017-05-27T13:40:56.563Z,4.30
2017-05-27T13:43:24.824Z,3.95
2017-05-27T13:45:53.031Z,3.62
2017-05-27T13:48:21.259Z,3.82
2017-05-27T13:50:49.554Z,4.15
2017-05-27T13:53:17.804Z,4.30
2017-05-27T13:55:46.011Z,3.27
2017-05-27T13:58:14.243Z,3.50
2017-05-27T14:00:42.520Z,4.32
2017-05-27T14:03:10.707Z,3.35
2017-05-27T14:05:38.923Z,4.18
2017-05-27T14:08:07.143Z,4.03
2017-05-27T14:10:35.382Z,3.05
2017-05-27T14:13:03.592Z,4.00
2017-05-27T14:15:31.927Z,3.70
2017-05-27T14:18:00.151Z,4.62
2017-05-27T14:20:28.442Z,3.58
2017-05-27T14:22:56.743Z,3.10
2017-05-27T14:25:25.070Z,3.10
2017-05-27T14:27:53.336Z,3.50
2017-05-27T14:30:21.551Z,3.45
2017-05-27T14:32:49.775Z,4.23
2017-05-27T14:35:18.042Z,4.43
2017-05-27T14:37:46.242Z,4.08
2017-05-27T14:40:14.467Z,9.85
2017-05-27T14:42:42.698Z,3.22
2017-05-27T14:45:10.957Z,3.92
2017-05-27T14:47:39.159Z,3.52
2017-05-27T14:50:07.434Z,3.42
2017-05-27T14:52:35.645Z,3.20
2017-05-27T14:55:03.891Z,3.20
2017-05-27T14:57:32.175Z,3.50
2017-05-27T15:00:00.444Z,3.75
2017-05-27T15:02:28.667Z,3.18
2017-05-27T15:04:56.867Z,2.75
2017-05-27T15:07:25.075Z,3.62
2017-05-27T15:09:53.520Z,3.36
2017-05-27T15:12:21.714Z,3.38
2017-05-27T15:14:49.991Z,3.15
2017-05-27T15:17:18.248Z,2.75
2017-05-27T15:19:46.455Z,3.45
2017-05-27T15:22:14.725Z,2.84
2017-05-27T15:24:42.990Z,6.15
2017-05-27T15:27:11.278Z,3.25
2017-05-27T15:29:39.617Z,2.68
2017-05-27T15:32:07.831Z,4.98
2017-05-27T15:34:36.092Z,4.16
2017-05-27T15:37:04.312Z,2.48
2017-05-27T15:39:32.682Z,2.73
2017-05-27T15:42:00.899Z,3.05
2017-05-27T15:44:29.123Z,3.50
2017-05-27T15:46:57.347Z,3.18
2017-05-27T15:49:25.640Z,3.77
2017-05-27T15:51:53.848Z,3.40
2017-05-27T15:54:22.078Z,2.62
2017-05-27T15:56:50.288Z,2.38
2017-05-27T15:59:18.495Z,4.60
2017-05-27T16:01:46.721Z,4.92
2017-05-27T16:04:14.907Z,4.44
2017-05-27T16:06:43.172Z,3.20
2017-05-27T16:09:11.548Z,2.85
2017-05-27T16:11:39.812Z,2.92
2017-05-27T16:14:08.035Z,4.77
2017-05-27T16:16:36.255Z,3.33
2017-05-27T16:19:04.511Z,3.63
2017-05-27T16:21:32.771Z,2.85
2017-05-27T16:24:00.976Z,3.87
2017-05-27T16:26:29.212Z,4.20
2017-05-27T16:28:57.516Z,3.20
2017-05-27T16:31:25.811Z,4.62
2017-05-27T16:33:54.104Z,4.10
2017-05-27T16:36:22.456Z,3.30
2017-05-27T16:38:50.839Z,3.17
2017-05-27T16:41:19.051Z,4.52
2017-05-27T16:43:47.347Z,3.80
2017-05-27T16:46:15.571Z,3.30
2017-05-27T16:48:43.851Z,3.12
2017-05-27T16:51:12.098Z,4.00
2017-05-27T16:53:40.328Z,3.37
2017-05-27T16:56:08.701Z,4.18
2017-05-27T16:58:36.923Z,2.90
2017-05-27T17:01:05.228Z,2.92
2017-05-27T17:03:33.506Z,3.22
2017-05-27T17:06:01.807Z,3.30
2017-05-27T17:08:30.059Z,3.50
2017-05-27T17:10:58.271Z,3.02
2017-05-27T17:13:26.603Z,2.88
2017-05-27T17:15:54.883Z,3.30
2017-05-27T17:18:23.104Z,14.78
2017-05-27T17:20:51.333Z,4.18
2017-05-27T17:23:19.547Z,4.05
2017-05-27T17:25:47.750Z,3.00
2017-05-27T17:28:15.974Z,2.90
2017-05-27T17:30:44.197Z,3.20
2017-05-27T17:33:12.429Z,2.90
2017-05-27T17:35:40.645Z,5.38
2017-05-27T17:38:08.918Z,3.77
2017-05-27T17:40:37.223Z,5.74
2017-05-27T17:43:05.465Z,3.90
2017-05-27T17:45:33.684Z,3.67
2017-05-27T17:48:01.963Z,3.62
2017-05-27T17:50:30.183Z,3.40
2017-05-27T17:52:58.421Z,3.70
2017-05-27T17:55:26.628Z,3.33
2017-05-27T17:57:54.941Z,3.42
2017-05-27T18:00:23.906Z,3.92
2017-05-27T18:02:52.191Z,4.40
2017-05-27T18:05:20.511Z,5.52
2017-05-27T18:07:48.759Z,3.82
2017-05-27T18:10:17.036Z,4.26
2017-05-27T18:12:45.312Z,4.10
2017-05-27T18:15:13.587Z,4.42
2017-05-27T18:17:41.798Z,4.28
2017-05-27T18:20:10.043Z,4.03
2017-05-27T18:22:38.419Z,3.92
2017-05-27T18:25:06.691Z,4.23
2017-05-27T18:27:34.919Z,3.82
2017-05-27T18:30:03.124Z,3.40
2017-05-27T18:32:31.336Z,6.52
2017-05-27T18:34:59.579Z,4.24
2017-05-27T18:37:27.810Z,5.10
2017-05-27T18:39:56.010Z,5.75
2017-05-27T18:42:24.226Z,4.55
2017-05-27T18:44:52.439Z,5.08
2017-05-27T18:47:20.672Z,5.00
2017-05-27T18:49:48.937Z,4.72
2017-05-27T18:52:17.198Z,4.42
2017-05-27T18:54:45.416Z,5.25
2017-05-27T18:57:13.671Z,4.80
2017-05-27T18:59:41.924Z,4.50
2017-05-27T19:02:10.240Z,4.36
2017-05-27T19:04:38.536Z,4.20
2017-05-27T19:07:06.832Z,4.92
2017-05-27T19:09:35.034Z,5.56
2017-05-27T19:12:03.309Z,5.20
2017-05-27T19:14:31.563Z,5.48
2017-05-27T19:16:59.719Z,6.98
2017-05-27T19:19:27.959Z,4.90
2017-05-27T19:21:56.225Z,5.57
2017-05-27T19:24:24.484Z,5.58
2017-05-27T19:26:52.701Z,4.62
2017-05-27T19:29:20.921Z,5.30
2017-05-27T19:31:49.209Z,5.23
2017-05-27T19:34:17.491Z,5.62
2017-05-27T19:36:45.713Z,5.32
2017-05-27T19:39:13.930Z,5.28
2017-05-27T19:41:42.151Z,6.02
2017-05-27T19:44:10.369Z,4.98
2017-05-27T19:46:38.663Z,5.07
2017-05-27T19:49:06.932Z,5.86
2017-05-27T19:51:35.127Z,5.80
2017-05-27T19:54:03.385Z,4.40
2017-05-27T19:56:31.650Z,6.07
2017-05-27T19:58:59.899Z,4.12
2017-05-27T20:01:28.217Z,5.82
2017-05-27T20:03:56.424Z,4.60
2017-05-27T20:06:24.730Z,4.30
2017-05-27T20:08:52.963Z,4.55
2017-05-27T20:11:21.163Z,5.27
2017-05-27T20:13:49.383Z,5.78
2017-05-27T20:16:17.668Z,4.62
2017-05-27T20:18:46.032Z,4.48
2017-05-27T20:21:14.251Z,5.08
2017-05-27T20:23:42.475Z,5.10
2017-05-27T20:26:10.694Z,5.20
2017-05-27T20:28:38.947Z,4.65
2017-05-27T20:31:07.168Z,4.46
2017-05-27T20:33:35.441Z,4.63
2017-05-27T20:36:03.663Z,5.62
2017-05-27T20:38:31.941Z,6.14
2017-05-27T20:41:00.172Z,4.62
2017-05-27T20:43:28.503Z,5.43
2017-05-27T20:45:56.752Z,4.90
2017-05-27T20:48:25.027Z,4.60
2017-05-27T20:50:53.307Z,4.92
2017-05-27T20:53:22.163Z,4.60
2017-05-27T20:55:51.156Z,4.76
2017-05-27T20:58:20.146Z,4.95
2017-05-27T21:00:49.142Z,5.10
2017-05-27T21:03:17.620Z,5.93
2017-05-27T21:05:45.831Z,4.70
2017-05-27T21:08:14.073Z,5.70
2017-05-27T21:10:42.373Z,4.90
2017-05-27T21:13:10.729Z,5.32
2017-05-27T21:15:39.027Z,4.92
2017-05-27T21:18:07.251Z,5.65
2017-05-27T21:20:35.478Z,7.10
2017-05-27T21:23:03.845Z,5.60
2017-05-27T21:25:32.055Z,6.43
2017-05-27T21:28:00.379Z,6.60
2017-05-27T21:30:28.679Z,5.90
2017-05-27T21:32:56.953Z,5.55
2017-05-27T21:35:25.211Z,5.58
2017-05-27T21:37:53.444Z,5.14
2017-05-27T21:40:21.651Z,5.15
2017-05-27T21:42:49.972Z,7.52
2017-05-27T21:45:18.198Z,5.63
2017-05-27T21:47:46.509Z,5.72
2017-05-27T21:50:14.795Z,5.27
2017-05-27T21:52:43.057Z,6.05
2017-05-27T21:55:11.269Z,5.78
2017-05-27T21:57:39.505Z,5.95
2017-05-27T22:00:07.752Z,5.12
2017-05-27T22:02:35.988Z,4.67
2017-05-27T22:05:04.223Z,4.60
2017-05-27T22:07:32.483Z,5.30
2017-05-27T22:10:00.808Z,5.80
2017-05-27T22:12:29.069Z,6.00
2017-05-27T22:14:57.349Z,5.48
2017-05-27T22:17:25.616Z,5.18
2017-05-27T22:19:53.905Z,4.40
2017-05-27T22:22:22.157Z,4.90
2017-05-27T22:24:50.443Z,4.80
2017-05-27T22:27:18.655Z,4.87
2017-05-27T22:29:46.965Z,4.50
2017-05-27T22:32:15.226Z,4.65
2017-05-27T22:34:43.639Z,5.03
2017-05-27T22:37:11.924Z,4.87
2017-05-27T22:39:40.199Z,4.78
2017-05-27T22:42:08.424Z,5.85
2017-05-27T22:44:36.643Z,4.78
2017-05-27T22:47:05.011Z,5.52
2017-05-27T22:49:33.218Z,5.22
2017-05-27T22:52:01.459Z,4.62
2017-05-27T22:54:29.738Z,5.14
2017-05-27T22:56:58.001Z,5.22
2017-05-27T22:59:26.226Z,5.68
2017-05-27T23:01:54.475Z,5.08
2017-05-27T23:04:22.708Z,5.70
2017-05-27T23:06:51.107Z,5.50
2017-05-27T23:09:19.463Z,5.44
2017-05-27T23:11:47.671Z,4.96
2017-05-27T23:14:15.950Z,5.58
2017-05-27T23:16:44.182Z,5.73
2017-05-27T23:19:12.497Z,5.73
2017-05-27T23:21:40.736Z,5.90
2017-05-27T23:24:09.036Z,5.22
2017-05-27T23:26:37.267Z,5.64
2017-05-27T23:29:05.497Z,6.88
2017-05-27T23:31:33.735Z,4.80
2017-05-27T23:34:01.954Z,4.90
2017-05-27T23:36:30.228Z,5.50
2017-05-27T23:38:58.424Z,5.45
2017-05-27T23:41:26.651Z,5.28
2017-05-27T23:43:54.912Z,5.33
2017-05-27T23:46:23.207Z,6.75
2017-05-27T23:48:51.426Z,4.90
2017-05-27T23:51:19.644Z,5.10
2017-05-27T23:53:47.966Z,5.85
2017-05-27T23:56:16.287Z,4.60
2017-05-27T23:58:44.492Z,5.12
